Eastampton Township, New Jersey
Current Conditions -  °F | °C
As of 8:54 PM on Monday 20 Oct 2014 (Local Time) from KVAY Reporting Station
Clear Clear  
Wind Chill: 51°   Ceiling: Unl
Heat Index: 51°   Visibility: 10mi
Dew Point: 44°   Wind: 3mph
Humidity: 77%   Direction: 190°S
Pressure: 29.98"   Gusts: NA
Location:  39.9896°N, 74.8021°W
Report Text: KVAY 210054Z AUTO 19003KT 10SM CLR 11/07 A2998 RMK AO2 SLP151 T01060067
Loading
Personal Weather Stations






























Interactive Weather Map
Tropical Storm Tracking
New forecast layout! Learn more

10-Day Weather Forecast

Advertisements
Track Severe Weather on mobile